createdAt,value
2017-10-17T00:00:39.937Z,11.90
2017-10-17T00:03:10.067Z,11.90
2017-10-17T00:05:39.345Z,11.90
2017-10-17T00:08:09.382Z,11.90
2017-10-17T00:10:40.199Z,11.90
2017-10-17T00:13:09.509Z,11.80
2017-10-17T00:15:38.791Z,11.80
2017-10-17T00:18:08.061Z,11.80
2017-10-17T00:20:37.360Z,11.80
2017-10-17T00:23:06.627Z,11.70
2017-10-17T00:25:36.717Z,11.70
2017-10-17T00:28:06.052Z,11.70
2017-10-17T00:30:39.472Z,11.60
2017-10-17T00:33:09.362Z,11.60
2017-10-17T00:35:45.139Z,11.60
2017-10-17T00:38:15.201Z,11.60
2017-10-17T00:40:44.722Z,11.50
2017-10-17T00:43:18.269Z,11.40
2017-10-17T00:45:47.538Z,11.40
2017-10-17T00:48:20.986Z,11.30
2017-10-17T00:50:50.302Z,11.30
2017-10-17T00:53:21.050Z,11.40
2017-10-17T00:55:50.375Z,11.30
2017-10-17T00:58:21.238Z,11.30
2017-10-17T01:00:50.532Z,11.30
2017-10-17T01:03:20.604Z,11.20
2017-10-17T01:05:49.838Z,11.20
2017-10-17T01:08:19.126Z,11.20
2017-10-17T01:10:48.396Z,11.20
2017-10-17T01:13:27.567Z,11.10
2017-10-17T01:15:57.014Z,11.10
2017-10-17T01:18:27.124Z,11.10
2017-10-17T01:20:56.609Z,11.10
2017-10-17T01:23:33.842Z,11.00
2017-10-17T01:26:14.875Z,11.00
2017-10-17T01:28:44.704Z,11.00
2017-10-17T01:31:13.998Z,10.90
2017-10-17T01:33:46.013Z,10.90
2017-10-17T01:36:15.350Z,10.90
2017-10-17T01:38:53.520Z,10.80
2017-10-17T01:41:22.934Z,10.80
2017-10-17T01:44:05.362Z,10.80
2017-10-17T01:46:42.663Z,10.90
2017-10-17T01:49:18.888Z,10.90
2017-10-17T01:52:09.058Z,10.90
2017-10-17T01:54:56.646Z,10.90
2017-10-17T01:57:26.723Z,10.90
2017-10-17T02:00:05.042Z,10.90
2017-10-17T02:02:41.210Z,10.80
2017-10-17T02:05:10.519Z,10.90
2017-10-17T02:07:41.385Z,10.80
2017-10-17T02:10:12.746Z,10.80
2017-10-17T02:12:42.400Z,10.80
2017-10-17T02:15:11.689Z,10.80
2017-10-17T02:17:40.966Z,10.80
2017-10-17T02:20:10.290Z,10.80
2017-10-17T02:22:41.295Z,10.80
2017-10-17T02:25:12.803Z,10.80
2017-10-17T02:27:42.115Z,10.80
2017-10-17T02:30:19.737Z,10.80
2017-10-17T02:32:49.013Z,10.80
2017-10-17T02:35:24.696Z,10.70
2017-10-17T02:37:53.983Z,10.70
2017-10-17T02:40:23.292Z,10.70
2017-10-17T02:42:52.689Z,10.70
2017-10-17T02:45:22.821Z,10.70
2017-10-17T02:47:58.698Z,10.70
2017-10-17T02:50:27.962Z,10.70
2017-10-17T02:52:57.996Z,10.70
2017-10-17T02:55:27.271Z,10.70
2017-10-17T02:57:56.690Z,10.70
2017-10-17T03:00:26.018Z,10.70
2017-10-17T03:02:55.304Z,10.70
2017-10-17T03:05:25.418Z,10.70
2017-10-17T03:07:57.046Z,10.70
2017-10-17T03:10:26.370Z,10.60
2017-10-17T03:12:55.658Z,10.70
2017-10-17T03:15:31.006Z,10.60
2017-10-17T03:18:06.465Z,10.60
2017-10-17T03:20:36.704Z,10.50
2017-10-17T03:23:14.191Z,10.50
2017-10-17T03:25:44.298Z,10.50
2017-10-17T03:28:18.086Z,10.60
2017-10-17T03:30:49.831Z,10.60
2017-10-17T03:33:29.042Z,10.60
2017-10-17T03:35:58.609Z,10.60
2017-10-17T03:38:41.014Z,10.50
2017-10-17T03:47:13.557Z,10.40
2017-10-17T03:49:55.838Z,10.40
2017-10-17T03:55:22.443Z,10.40
2017-10-17T03:57:51.598Z,10.40
2017-10-17T04:00:22.331Z,10.40
2017-10-17T04:03:04.332Z,10.30
2017-10-17T04:05:46.155Z,10.30
2017-10-17T04:08:25.758Z,10.30
2017-10-17T04:11:17.059Z,10.30
2017-10-17T04:17:05.259Z,10.30
2017-10-17T04:19:40.494Z,10.30
2017-10-17T04:25:15.318Z,10.30
2017-10-17T04:28:13.817Z,10.30
2017-10-17T04:33:49.007Z,10.30
2017-10-17T04:36:42.479Z,10.30
2017-10-17T04:39:11.655Z,10.30
2017-10-17T04:41:53.947Z,10.20
2017-10-17T04:44:40.477Z,10.20
2017-10-17T04:53:37.960Z,10.10
2017-10-17T04:56:10.070Z,10.10
2017-10-17T04:58:53.731Z,10.10
2017-10-17T05:01:22.683Z,10.00
2017-10-17T05:06:56.823Z,10.00
2017-10-17T05:09:27.468Z,10.00
2017-10-17T05:11:57.190Z,10.00
2017-10-17T05:18:04.174Z,10.00
2017-10-17T05:20:34.795Z,10.00
2017-10-17T05:26:00.403Z,10.00
2017-10-17T05:28:35.965Z,10.00
2017-10-17T05:31:21.347Z,9.90
2017-10-17T05:34:20.987Z,9.90
2017-10-17T05:37:03.217Z,10.00
2017-10-17T05:39:33.706Z,10.00
2017-10-17T05:42:02.706Z,10.00
2017-10-17T05:44:44.834Z,10.00
2017-10-17T05:47:26.118Z,10.00
2017-10-17T05:50:22.118Z,10.00
2017-10-17T05:52:51.944Z,10.00
2017-10-17T05:55:21.647Z,10.10
2017-10-17T05:57:51.347Z,10.10
2017-10-17T06:00:20.304Z,10.00
2017-10-17T06:02:49.267Z,10.10
2017-10-17T06:05:18.226Z,10.10
2017-10-17T06:07:47.243Z,10.20
2017-10-17T06:10:16.214Z,10.20
2017-10-17T06:12:45.179Z,10.30
2017-10-17T06:15:14.140Z,10.30
2017-10-17T06:17:43.601Z,10.50
2017-10-17T06:20:13.647Z,10.60
2017-10-17T06:22:43.026Z,10.60
2017-10-17T06:25:12.434Z,10.70
2017-10-17T06:27:41.694Z,10.90
2017-10-17T06:30:11.164Z,11.00
2017-10-17T06:32:40.714Z,11.10
2017-10-17T06:35:09.974Z,11.30
2017-10-17T06:37:39.452Z,11.40
2017-10-17T06:40:09.538Z,11.70
2017-10-17T06:42:38.791Z,11.60
2017-10-17T06:45:08.269Z,11.80
2017-10-17T06:47:39.118Z,12.00
2017-10-17T06:50:09.156Z,12.20
2017-10-17T06:52:39.203Z,12.40
2017-10-17T06:55:09.198Z,12.30
2017-10-17T06:57:38.466Z,12.60
2017-10-17T07:00:07.751Z,12.70
2017-10-17T07:02:37.029Z,12.80
2017-10-17T07:05:06.291Z,12.70
2017-10-17T07:07:36.142Z,12.60
2017-10-17T07:10:05.617Z,12.60
2017-10-17T07:12:34.874Z,12.90
2017-10-17T07:15:04.175Z,14.20
2017-10-17T07:17:33.558Z,15.60
2017-10-17T07:20:02.830Z,17.20
2017-10-17T07:22:32.480Z,18.50
2017-10-17T07:25:01.701Z,19.90
2017-10-17T07:27:31.029Z,21.10
2017-10-17T07:30:01.062Z,23.60
2017-10-17T07:32:30.326Z,23.60
2017-10-17T07:34:59.595Z,24.70
2017-10-17T07:37:28.858Z,25.80
2017-10-17T07:39:58.121Z,26.60
2017-10-17T07:42:27.366Z,27.40
2017-10-17T07:44:56.647Z,28.10
2017-10-17T07:47:26.056Z,28.30
2017-10-17T07:49:55.361Z,28.10
2017-10-17T07:52:24.604Z,28.20
2017-10-17T07:54:53.855Z,28.50
2017-10-17T07:57:23.565Z,28.60
2017-10-17T07:59:52.797Z,28.50
2017-10-17T08:02:22.258Z,28.90
2017-10-17T08:04:52.287Z,28.80
2017-10-17T08:07:21.582Z,28.80
2017-10-17T08:09:50.902Z,29.00
2017-10-17T08:12:20.275Z,29.30
2017-10-17T08:14:50.326Z,29.40
2017-10-17T08:17:19.707Z,29.40
2017-10-17T08:19:49.921Z,29.50
2017-10-17T08:22:19.305Z,29.50
2017-10-17T08:24:48.562Z,29.20
2017-10-17T08:27:17.811Z,28.70
2017-10-17T08:29:47.135Z,28.90
2017-10-17T08:32:16.387Z,29.00
2017-10-17T08:34:45.649Z,29.60
2017-10-17T08:37:15.688Z,30.20
2017-10-17T08:39:44.926Z,30.10
2017-10-17T08:42:14.246Z,30.60
2017-10-17T08:44:43.495Z,31.00
2017-10-17T08:47:12.741Z,31.00
2017-10-17T08:49:42.230Z,31.00
2017-10-17T08:52:11.482Z,31.30
2017-10-17T08:54:40.782Z,32.00
2017-10-17T08:57:10.034Z,32.70
2017-10-17T08:59:39.286Z,33.60
2017-10-17T09:02:08.550Z,34.10
2017-10-17T09:04:37.809Z,34.30
2017-10-17T09:07:07.082Z,34.30
2017-10-17T09:09:36.349Z,34.60
2017-10-17T09:12:05.687Z,34.90
2017-10-17T09:14:34.994Z,34.50
2017-10-17T09:17:04.317Z,34.40
2017-10-17T09:19:33.602Z,33.80
2017-10-17T09:22:02.892Z,33.80
2017-10-17T09:24:32.279Z,33.80
2017-10-17T09:27:02.394Z,34.80
2017-10-17T09:29:32.455Z,34.40
2017-10-17T09:32:01.714Z,34.40
2017-10-17T09:34:30.994Z,34.60
2017-10-17T09:37:00.302Z,34.20
2017-10-17T09:39:29.546Z,34.10
2017-10-17T09:41:58.822Z,34.50
2017-10-17T09:44:28.076Z,34.10
2017-10-17T09:46:57.329Z,34.10
2017-10-17T09:49:26.595Z,34.20
2017-10-17T09:51:55.850Z,34.10
2017-10-17T09:54:25.165Z,34.20
2017-10-17T09:56:54.444Z,34.40
2017-10-17T09:59:23.732Z,34.80
2017-10-17T10:01:53.774Z,35.00
2017-10-17T10:04:23.046Z,35.00
2017-10-17T10:06:52.476Z,35.00
2017-10-17T10:09:21.990Z,35.30
2017-10-17T10:11:51.255Z,35.60
2017-10-17T10:14:21.404Z,36.20
2017-10-17T10:16:50.704Z,36.20
2017-10-17T10:19:19.967Z,35.80
2017-10-17T10:21:49.326Z,34.90
2017-10-17T10:24:18.603Z,34.80
2017-10-17T10:26:47.885Z,34.70
2017-10-17T10:29:17.916Z,35.00
2017-10-17T10:31:47.506Z,35.00
2017-10-17T10:34:17.548Z,34.10
2017-10-17T10:36:46.798Z,34.10
2017-10-17T10:39:16.047Z,33.70
2017-10-17T10:41:45.316Z,33.50
2017-10-17T10:44:14.573Z,33.70
2017-10-17T10:46:43.859Z,33.20
2017-10-17T10:49:13.107Z,33.20
2017-10-17T10:51:42.446Z,33.10
2017-10-17T10:54:11.830Z,33.00
2017-10-17T10:56:41.118Z,32.90
2017-10-17T10:59:10.366Z,33.00
2017-10-17T11:01:39.624Z,33.00
2017-10-17T11:04:08.916Z,32.80
2017-10-17T11:06:38.167Z,32.40
2017-10-17T11:09:07.432Z,32.10
2017-10-17T11:11:36.705Z,32.10
2017-10-17T11:14:05.977Z,32.30
2017-10-17T11:16:35.354Z,32.10
2017-10-17T11:19:05.375Z,31.80
2017-10-17T11:21:34.638Z,31.80
2017-10-17T11:24:03.998Z,31.90
2017-10-17T11:26:33.282Z,32.00
2017-10-17T11:29:02.562Z,32.10
2017-10-17T11:31:32.585Z,31.40
2017-10-17T11:34:02.631Z,31.00
2017-10-17T11:36:31.897Z,31.00
2017-10-17T11:39:01.147Z,30.90
2017-10-17T11:41:48.075Z,29.90
2017-10-17T11:44:17.335Z,29.90
2017-10-17T11:46:47.429Z,30.50
2017-10-17T11:49:16.690Z,30.50
2017-10-17T11:51:45.974Z,30.80
2017-10-17T11:54:15.374Z,31.30
2017-10-17T11:56:44.650Z,31.50
2017-10-17T11:59:14.778Z,31.40
2017-10-17T12:01:44.935Z,31.70
2017-10-17T12:04:14.393Z,31.60
2017-10-17T12:06:44.423Z,30.90
2017-10-17T12:09:13.827Z,30.90
2017-10-17T12:11:43.872Z,29.90
2017-10-17T12:14:13.114Z,29.90
2017-10-17T12:16:42.387Z,29.60
2017-10-17T12:19:11.637Z,29.10
2017-10-17T12:21:41.752Z,27.90
2017-10-17T12:24:11.066Z,27.80
2017-10-17T12:26:41.096Z,26.90
2017-10-17T12:29:10.366Z,26.90
2017-10-17T12:31:40.402Z,25.90
2017-10-17T12:34:10.417Z,25.50
2017-10-17T12:36:40.451Z,25.40
2017-10-17T12:39:09.847Z,25.40
2017-10-17T12:41:39.882Z,25.10
2017-10-17T12:44:09.190Z,25.10
2017-10-17T12:46:38.469Z,24.90
2017-10-17T12:49:08.576Z,25.20
2017-10-17T12:51:38.623Z,25.00
2017-10-17T12:54:07.881Z,25.00
2017-10-17T12:56:38.742Z,24.50
2017-10-17T12:59:08.763Z,24.30
2017-10-17T13:01:38.802Z,24.10
2017-10-17T13:04:08.067Z,24.10
2017-10-17T13:06:37.355Z,23.90
2017-10-17T13:09:07.416Z,23.50
2017-10-17T13:11:36.687Z,23.50
2017-10-17T13:14:05.943Z,23.50
2017-10-17T13:16:35.218Z,23.50
2017-10-17T13:19:04.943Z,23.50
2017-10-17T13:21:35.206Z,23.20
2017-10-17T13:24:04.459Z,23.20
2017-10-17T13:26:33.859Z,23.20
2017-10-17T13:29:03.981Z,23.30
2017-10-17T13:31:33.302Z,23.20
2017-10-17T13:34:02.560Z,23.00
2017-10-17T13:36:32.892Z,22.90
2017-10-17T13:39:02.999Z,22.70
2017-10-17T13:41:32.252Z,22.70
2017-10-17T13:44:01.562Z,22.80
2017-10-17T13:46:30.819Z,22.60
2017-10-17T13:49:00.385Z,22.60
2017-10-17T13:51:29.724Z,22.60
2017-10-17T13:53:59.758Z,22.60
2017-10-17T13:56:29.021Z,22.60
2017-10-17T13:58:58.294Z,22.60
2017-10-17T14:01:27.538Z,22.60
2017-10-17T14:03:57.582Z,22.30
2017-10-17T14:06:27.802Z,22.30
2017-10-17T14:08:57.054Z,22.20
2017-10-17T14:11:26.378Z,22.10
2017-10-17T14:13:56.402Z,22.10
2017-10-17T14:16:25.657Z,22.10
2017-10-17T14:18:54.951Z,22.20
2017-10-17T14:21:24.227Z,22.10
2017-10-17T14:23:54.239Z,21.80
2017-10-17T14:26:23.509Z,21.80
2017-10-17T14:28:52.818Z,21.80
2017-10-17T14:31:22.076Z,21.80
2017-10-17T14:33:51.343Z,21.70
2017-10-17T14:36:21.498Z,21.50
2017-10-17T14:38:50.785Z,21.50
2017-10-17T14:41:20.044Z,21.40
2017-10-17T14:43:50.087Z,21.10
2017-10-17T14:46:19.349Z,21.10
2017-10-17T14:48:48.820Z,21.00
2017-10-17T14:51:18.095Z,20.80
2017-10-17T14:53:47.420Z,20.50
2017-10-17T14:56:16.683Z,20.30
2017-10-17T14:58:46.702Z,19.90
2017-10-17T15:01:16.058Z,19.80
2017-10-17T15:03:45.315Z,19.60
2017-10-17T15:06:14.702Z,19.50
2017-10-17T15:08:44.739Z,19.10
2017-10-17T15:11:14.097Z,19.00
2017-10-17T15:13:43.373Z,19.00
2017-10-17T15:16:13.323Z,19.00
2017-10-17T15:18:42.663Z,18.90
2017-10-17T15:21:11.916Z,18.80
2017-10-17T15:23:41.182Z,18.70
2017-10-17T15:26:10.434Z,18.70
2017-10-17T15:28:41.251Z,18.40
2017-10-17T15:31:10.584Z,18.40
2017-10-17T15:33:39.899Z,18.20
2017-10-17T15:36:09.273Z,18.20
2017-10-17T15:38:38.690Z,18.00
2017-10-17T15:41:08.758Z,17.90
2017-10-17T15:43:38.110Z,17.80
2017-10-17T15:46:07.438Z,17.80
2017-10-17T15:48:36.817Z,17.60
2017-10-17T15:51:06.867Z,17.30
2017-10-17T15:53:36.130Z,17.30
2017-10-17T15:56:05.408Z,17.20
2017-10-17T15:58:34.679Z,17.30
2017-10-17T16:01:03.949Z,17.30
2017-10-17T16:03:34.112Z,16.90
2017-10-17T16:06:03.379Z,16.90
2017-10-17T16:08:33.391Z,16.90
2017-10-17T16:11:02.676Z,16.90
2017-10-17T16:13:31.914Z,16.90
2017-10-17T16:16:01.209Z,16.80
2017-10-17T16:18:31.224Z,16.70
2017-10-17T16:21:00.634Z,16.70
2017-10-17T16:23:29.925Z,16.60
2017-10-17T16:25:59.927Z,16.40
2017-10-17T16:28:29.344Z,16.40
2017-10-17T16:30:58.641Z,16.30
2017-10-17T16:33:28.659Z,16.10
2017-10-17T16:35:57.940Z,16.10
2017-10-17T16:38:27.346Z,16.00
2017-10-17T16:40:57.405Z,15.80
2017-10-17T16:43:26.658Z,15.80
2017-10-17T16:45:55.933Z,15.80
2017-10-17T16:48:25.389Z,15.70
2017-10-17T16:50:55.420Z,15.60
2017-10-17T16:53:24.794Z,15.50
2017-10-17T16:55:54.819Z,15.40
2017-10-17T16:58:24.083Z,15.40
2017-10-17T17:00:53.392Z,15.30
2017-10-17T17:03:22.730Z,15.20
2017-10-17T17:05:51.990Z,15.20
2017-10-17T17:08:21.423Z,15.10
2017-10-17T17:10:51.527Z,15.00
2017-10-17T17:13:20.875Z,15.00
2017-10-17T17:15:50.134Z,15.00
2017-10-17T17:18:19.463Z,15.00
2017-10-17T17:20:49.491Z,14.90
2017-10-17T17:23:18.887Z,14.90
2017-10-17T17:25:48.322Z,14.80
2017-10-17T17:28:17.748Z,14.80
2017-10-17T17:30:47.034Z,14.80
2017-10-17T17:33:16.427Z,14.70
2017-10-17T17:35:45.750Z,14.70
2017-10-17T17:38:14.976Z,14.70
2017-10-17T17:40:45.035Z,14.60
2017-10-17T17:43:14.350Z,14.60
2017-10-17T17:45:43.622Z,14.50
2017-10-17T17:48:12.945Z,14.50
2017-10-17T17:50:42.223Z,14.50
2017-10-17T17:53:11.518Z,14.40
2017-10-17T17:55:40.785Z,14.40
2017-10-17T17:58:10.054Z,14.30
2017-10-17T18:00:39.337Z,14.30
2017-10-17T18:03:08.607Z,14.30
2017-10-17T18:05:37.882Z,14.20
2017-10-17T18:08:07.230Z,14.20
2017-10-17T18:10:37.290Z,14.10
2017-10-17T18:13:06.729Z,14.10
2017-10-17T18:15:35.989Z,14.10
2017-10-17T18:18:05.271Z,14.00
2017-10-17T18:20:34.587Z,14.00
2017-10-17T18:23:03.878Z,14.00
2017-10-17T18:25:33.237Z,13.90
2017-10-17T18:28:03.011Z,13.90
2017-10-17T18:30:32.279Z,13.90
2017-10-17T18:33:01.593Z,13.90
2017-10-17T18:35:30.919Z,13.80
2017-10-17T18:38:00.423Z,13.80
2017-10-17T18:40:29.730Z,13.80
2017-10-17T18:42:59.138Z,13.70
2017-10-17T18:45:28.360Z,13.70
2017-10-17T18:47:57.831Z,13.70
2017-10-17T18:50:27.134Z,13.70
2017-10-17T18:52:56.411Z,13.60
2017-10-17T18:55:25.721Z,13.60
2017-10-17T18:57:54.973Z,13.60
2017-10-17T19:00:24.238Z,13.50
2017-10-17T19:02:53.503Z,13.50
2017-10-17T19:05:23.120Z,13.50
2017-10-17T19:07:54.033Z,13.50
2017-10-17T19:10:23.361Z,13.50
2017-10-17T19:12:52.724Z,13.50
2017-10-17T19:15:22.271Z,13.40
2017-10-17T19:17:51.552Z,13.40
2017-10-17T19:20:20.818Z,13.40
2017-10-17T19:22:50.135Z,13.40
2017-10-17T19:25:20.392Z,13.40
2017-10-17T19:27:49.722Z,13.40
2017-10-17T19:30:19.006Z,13.30
2017-10-17T19:32:48.413Z,13.30
2017-10-17T19:35:18.439Z,13.20
2017-10-17T19:37:47.736Z,13.20
2017-10-17T19:40:17.116Z,13.20
2017-10-17T19:42:47.144Z,13.20
2017-10-17T19:45:16.551Z,13.20
2017-10-17T19:47:45.858Z,13.20
2017-10-17T19:50:15.261Z,13.20
2017-10-17T19:52:44.515Z,13.20
2017-10-17T19:55:14.063Z,13.20
2017-10-17T19:57:43.472Z,13.10
2017-10-17T20:00:12.718Z,13.10
2017-10-17T20:02:41.983Z,13.00
2017-10-17T20:05:11.254Z,13.00
2017-10-17T20:07:41.315Z,13.00
2017-10-17T20:10:10.582Z,13.00
2017-10-17T20:12:39.857Z,13.00
2017-10-17T20:15:09.275Z,13.00
2017-10-17T20:17:40.215Z,13.00
2017-10-17T20:20:09.486Z,13.00
2017-10-17T20:22:38.782Z,13.00
2017-10-17T20:25:08.018Z,12.90
2017-10-17T20:27:37.300Z,12.90
2017-10-17T20:30:06.558Z,12.80
2017-10-17T20:32:36.498Z,12.80
2017-10-17T20:35:05.764Z,12.80
2017-10-17T20:37:35.159Z,12.80
2017-10-17T20:40:04.422Z,12.70
2017-10-17T20:42:34.448Z,12.70
2017-10-17T20:45:03.709Z,12.70
2017-10-17T20:47:32.966Z,12.80
2017-10-17T20:50:02.251Z,12.80
2017-10-17T20:52:31.575Z,12.70
2017-10-17T20:55:01.599Z,12.70
2017-10-17T20:57:30.877Z,12.70
2017-10-17T21:00:00.191Z,12.70
2017-10-17T21:02:30.111Z,12.70
2017-10-17T21:04:59.401Z,12.60
2017-10-17T21:07:28.647Z,12.60
2017-10-17T21:09:57.938Z,12.60
2017-10-17T21:12:27.332Z,12.60
2017-10-17T21:14:56.614Z,12.60
2017-10-17T21:17:25.865Z,12.50
2017-10-17T21:19:55.151Z,12.50
2017-10-17T21:22:24.406Z,12.50
2017-10-17T21:24:53.702Z,12.50
2017-10-17T21:27:22.980Z,12.50
2017-10-17T21:29:52.289Z,12.50
2017-10-17T21:32:21.596Z,12.50
2017-10-17T21:34:50.863Z,12.50
2017-10-17T21:37:20.152Z,12.50
2017-10-17T21:39:49.483Z,12.50
2017-10-17T21:42:18.727Z,12.40
2017-10-17T21:44:47.990Z,12.40
2017-10-17T21:47:17.242Z,12.50
2017-10-17T21:49:46.494Z,12.50
2017-10-17T21:52:15.829Z,12.50
2017-10-17T21:54:45.966Z,12.50
2017-10-17T21:57:15.991Z,12.50
2017-10-17T21:59:45.246Z,12.50
2017-10-17T22:02:14.524Z,12.50
2017-10-17T22:04:43.770Z,12.40
2017-10-17T22:07:14.039Z,12.40
2017-10-17T22:09:43.413Z,12.30
2017-10-17T22:12:12.710Z,12.40
2017-10-17T22:14:42.726Z,12.30
2017-10-17T22:17:11.978Z,12.30
2017-10-17T22:19:41.461Z,12.30
2017-10-17T22:22:10.946Z,12.30
2017-10-17T22:24:40.983Z,12.30
2017-10-17T22:27:10.415Z,12.20
2017-10-17T22:29:39.681Z,12.20
2017-10-17T22:32:09.018Z,12.20
2017-10-17T22:34:38.294Z,12.20
2017-10-17T22:37:07.713Z,12.10
2017-10-17T22:39:36.970Z,12.10
2017-10-17T22:42:06.254Z,12.10
2017-10-17T22:44:35.538Z,12.10
2017-10-17T22:47:06.405Z,12.00
2017-10-17T22:49:36.446Z,12.00
2017-10-17T22:52:05.711Z,12.00
2017-10-17T22:54:35.121Z,12.00
2017-10-17T22:57:05.170Z,12.00
2017-10-17T22:59:34.477Z,12.00
2017-10-17T23:02:03.757Z,12.00
2017-10-17T23:04:33.042Z,12.00
2017-10-17T23:07:02.318Z,12.00
2017-10-17T23:09:31.622Z,12.00
2017-10-17T23:12:00.881Z,12.00
2017-10-17T23:14:30.349Z,12.00
2017-10-17T23:17:17.470Z,11.90
2017-10-17T23:22:59.820Z,11.90
2017-10-17T23:25:30.563Z,11.80
2017-10-17T23:27:59.854Z,11.80
2017-10-17T23:30:29.233Z,11.80
2017-10-17T23:32:59.435Z,11.80
2017-10-17T23:35:28.683Z,11.80
2017-10-17T23:37:57.970Z,11.80
2017-10-17T23:40:28.010Z,11.80
2017-10-17T23:42:57.282Z,11.80
2017-10-17T23:45:26.550Z,11.80
2017-10-17T23:47:55.819Z,11.80
2017-10-17T23:50:25.086Z,11.70
2017-10-17T23:52:55.112Z,11.70
2017-10-17T23:55:24.389Z,11.70
2017-10-17T23:57:53.631Z,11.70
